sensor_id;sensor_type;location;lat;lon;timestamp;P1;durP1;ratioP1;P2;durP2;ratioP2
69542;SDS011;56762;49.494;11.768;2023-05-09T00:02:00;5.65;;;4.05;;
69542;SDS011;56762;49.494;11.768;2023-05-09T00:04:30;7.15;;;3.72;;
69542;SDS011;56762;49.494;11.768;2023-05-09T00:06:59;7.53;;;3.92;;
69542;SDS011;56762;49.494;11.768;2023-05-09T00:09:27;6.83;;;3.87;;
69542;SDS011;56762;49.494;11.768;2023-05-09T00:11:55;7.00;;;3.78;;
69542;SDS011;56762;49.494;11.768;2023-05-09T00:14:24;8.10;;;3.58;;
69542;SDS011;56762;49.494;11.768;2023-05-09T00:16:52;6.03;;;3.65;;
69542;SDS011;56762;49.494;11.768;2023-05-09T00:19:22;6.75;;;3.67;;
69542;SDS011;56762;49.494;11.768;2023-05-09T00:21:52;9.17;;;3.80;;
69542;SDS011;56762;49.494;11.768;2023-05-09T00:24:20;7.40;;;3.70;;
69542;SDS011;56762;49.494;11.768;2023-05-09T00:26:49;6.75;;;3.80;;
69542;SDS011;56762;49.494;11.768;2023-05-09T00:29:16;6.22;;;3.75;;
69542;SDS011;56762;49.494;11.768;2023-05-09T00:31:45;6.72;;;3.33;;
69542;SDS011;56762;49.494;11.768;2023-05-09T00:34:13;6.63;;;3.20;;
69542;SDS011;56762;49.494;11.768;2023-05-09T00:36:41;6.05;;;3.42;;
69542;SDS011;56762;49.494;11.768;2023-05-09T00:39:10;4.70;;;2.90;;
69542;SDS011;56762;49.494;11.768;2023-05-09T00:41:38;5.82;;;3.10;;
69542;SDS011;56762;49.494;11.768;2023-05-09T00:44:07;4.93;;;3.08;;
69542;SDS011;56762;49.494;11.768;2023-05-09T00:46:35;4.23;;;2.90;;
69542;SDS011;56762;49.494;11.768;2023-05-09T00:49:03;6.20;;;3.25;;
69542;SDS011;56762;49.494;11.768;2023-05-09T00:51:31;9.50;;;4.05;;
69542;SDS011;56762;49.494;11.768;2023-05-09T00:54:00;9.10;;;4.65;;
69542;SDS011;56762;49.494;11.768;2023-05-09T00:56:29;11.20;;;5.20;;
69542;SDS011;56762;49.494;11.768;2023-05-09T00:58:57;10.47;;;5.40;;
69542;SDS011;56762;49.494;11.768;2023-05-09T01:01:25;12.43;;;5.63;;
69542;SDS011;56762;49.494;11.768;2023-05-09T01:03:53;8.35;;;5.03;;
69542;SDS011;56762;49.494;11.768;2023-05-09T01:06:23;10.48;;;5.43;;
69542;SDS011;56762;49.494;11.768;2023-05-09T01:09:00;8.35;;;5.10;;
69542;SDS011;56762;49.494;11.768;2023-05-09T01:11:38;8.80;;;4.83;;
69542;SDS011;56762;49.494;11.768;2023-05-09T01:14:12;10.48;;;5.13;;
69542;SDS011;56762;49.494;11.768;2023-05-09T01:16:46;8.63;;;4.32;;
69542;SDS011;56762;49.494;11.768;2023-05-09T01:19:26;6.68;;;3.92;;
69542;SDS011;56762;49.494;11.768;2023-05-09T01:22:20;8.90;;;4.43;;
69542;SDS011;56762;49.494;11.768;2023-05-09T01:25:05;9.27;;;4.47;;
69542;SDS011;56762;49.494;11.768;2023-05-09T01:27:41;8.00;;;4.20;;
69542;SDS011;56762;49.494;11.768;2023-05-09T01:30:17;7.30;;;4.25;;
69542;SDS011;56762;49.494;11.768;2023-05-09T01:32:47;7.65;;;4.05;;
69542;SDS011;56762;49.494;11.768;2023-05-09T01:35:17;7.13;;;4.20;;
69542;SDS011;56762;49.494;11.768;2023-05-09T01:37:49;8.23;;;4.40;;
69542;SDS011;56762;49.494;11.768;2023-05-09T01:40:18;6.25;;;3.75;;
69542;SDS011;56762;49.494;11.768;2023-05-09T01:42:48;8.52;;;4.57;;
69542;SDS011;56762;49.494;11.768;2023-05-09T01:45:20;7.55;;;4.28;;
69542;SDS011;56762;49.494;11.768;2023-05-09T01:47:50;8.13;;;4.10;;
69542;SDS011;56762;49.494;11.768;2023-05-09T01:50:19;8.63;;;3.93;;
69542;SDS011;56762;49.494;11.768;2023-05-09T01:52:51;6.95;;;4.13;;
69542;SDS011;56762;49.494;11.768;2023-05-09T01:55:24;7.22;;;3.72;;
69542;SDS011;56762;49.494;11.768;2023-05-09T01:57:53;8.13;;;3.67;;
69542;SDS011;56762;49.494;11.768;2023-05-09T02:00:25;4.95;;;3.20;;
69542;SDS011;56762;49.494;11.768;2023-05-09T02:02:54;8.57;;;4.07;;
69542;SDS011;56762;49.494;11.768;2023-05-09T02:05:25;8.57;;;4.13;;
69542;SDS011;56762;49.494;11.768;2023-05-09T02:07:54;8.40;;;4.30;;
69542;SDS011;56762;49.494;11.768;2023-05-09T02:10:23;8.52;;;4.63;;
69542;SDS011;56762;49.494;11.768;2023-05-09T02:12:53;10.70;;;5.20;;
69542;SDS011;56762;49.494;11.768;2023-05-09T02:15:21;8.60;;;4.40;;
69542;SDS011;56762;49.494;11.768;2023-05-09T02:17:52;7.85;;;4.20;;
69542;SDS011;56762;49.494;11.768;2023-05-09T02:20:20;6.57;;;3.75;;
69542;SDS011;56762;49.494;11.768;2023-05-09T02:22:48;6.25;;;3.70;;
69542;SDS011;56762;49.494;11.768;2023-05-09T02:25:16;7.40;;;4.22;;
69542;SDS011;56762;49.494;11.768;2023-05-09T02:27:45;7.97;;;4.20;;
69542;SDS011;56762;49.494;11.768;2023-05-09T02:30:14;9.73;;;4.45;;
69542;SDS011;56762;49.494;11.768;2023-05-09T02:32:49;8.02;;;4.00;;
69542;SDS011;56762;49.494;11.768;2023-05-09T02:35:20;8.27;;;4.20;;
69542;SDS011;56762;49.494;11.768;2023-05-09T02:37:49;5.88;;;3.17;;
69542;SDS011;56762;49.494;11.768;2023-05-09T02:40:18;4.97;;;3.07;;
69542;SDS011;56762;49.494;11.768;2023-05-09T02:42:47;4.70;;;2.83;;
69542;SDS011;56762;49.494;11.768;2023-05-09T02:45:15;5.75;;;3.40;;
69542;SDS011;56762;49.494;11.768;2023-05-09T02:47:43;5.97;;;3.60;;
69542;SDS011;56762;49.494;11.768;2023-05-09T02:50:11;5.45;;;3.15;;
69542;SDS011;56762;49.494;11.768;2023-05-09T02:52:41;5.37;;;3.17;;
69542;SDS011;56762;49.494;11.768;2023-05-09T02:55:09;5.78;;;3.25;;
69542;SDS011;56762;49.494;11.768;2023-05-09T02:57:37;5.32;;;3.22;;
69542;SDS011;56762;49.494;11.768;2023-05-09T03:00:05;5.82;;;3.05;;
69542;SDS011;56762;49.494;11.768;2023-05-09T03:02:35;5.50;;;3.33;;
69542;SDS011;56762;49.494;11.768;2023-05-09T03:05:04;5.33;;;3.10;;
69542;SDS011;56762;49.494;11.768;2023-05-09T03:07:33;5.53;;;2.90;;
69542;SDS011;56762;49.494;11.768;2023-05-09T03:10:02;4.95;;;2.90;;
69542;SDS011;56762;49.494;11.768;2023-05-09T03:12:32;6.32;;;3.30;;
69542;SDS011;56762;49.494;11.768;2023-05-09T03:15:00;5.43;;;3.33;;
69542;SDS011;56762;49.494;11.768;2023-05-09T03:17:28;4.60;;;2.70;;
69542;SDS011;56762;49.494;11.768;2023-05-09T03:19:57;7.43;;;3.47;;
69542;SDS011;56762;49.494;11.768;2023-05-09T03:22:29;6.60;;;3.33;;
69542;SDS011;56762;49.494;11.768;2023-05-09T03:24:57;4.65;;;3.08;;
69542;SDS011;56762;49.494;11.768;2023-05-09T03:27:27;6.75;;;3.53;;
69542;SDS011;56762;49.494;11.768;2023-05-09T03:29:55;6.03;;;3.17;;
69542;SDS011;56762;49.494;11.768;2023-05-09T03:32:25;5.70;;;3.35;;
69542;SDS011;56762;49.494;11.768;2023-05-09T03:34:53;5.15;;;2.95;;
69542;SDS011;56762;49.494;11.768;2023-05-09T03:37:22;6.65;;;3.28;;
69542;SDS011;56762;49.494;11.768;2023-05-09T03:39:52;6.43;;;2.88;;
69542;SDS011;56762;49.494;11.768;2023-05-09T03:42:20;5.90;;;3.20;;
69542;SDS011;56762;49.494;11.768;2023-05-09T03:44:50;5.32;;;2.90;;
69542;SDS011;56762;49.494;11.768;2023-05-09T03:47:18;5.30;;;2.92;;
69542;SDS011;56762;49.494;11.768;2023-05-09T03:49:46;6.72;;;2.97;;
69542;SDS011;56762;49.494;11.768;2023-05-09T03:52:14;5.50;;;2.92;;
69542;SDS011;56762;49.494;11.768;2023-05-09T03:54:42;5.07;;;3.00;;
69542;SDS011;56762;49.494;11.768;2023-05-09T03:57:10;6.07;;;3.03;;
69542;SDS011;56762;49.494;11.768;2023-05-09T03:59:39;4.45;;;2.50;;
69542;SDS011;56762;49.494;11.768;2023-05-09T04:02:08;4.97;;;3.22;;
69542;SDS011;56762;49.494;11.768;2023-05-09T04:04:37;4.70;;;2.70;;
69542;SDS011;56762;49.494;11.768;2023-05-09T04:07:06;4.70;;;2.67;;
69542;SDS011;56762;49.494;11.768;2023-05-09T04:09:34;5.10;;;2.92;;
69542;SDS011;56762;49.494;11.768;2023-05-09T04:12:02;5.40;;;2.72;;
69542;SDS011;56762;49.494;11.768;2023-05-09T04:14:31;4.30;;;2.75;;
69542;SDS011;56762;49.494;11.768;2023-05-09T04:16:59;4.53;;;2.20;;
69542;SDS011;56762;49.494;11.768;2023-05-09T04:19:29;4.83;;;2.37;;
69542;SDS011;56762;49.494;11.768;2023-05-09T04:21:57;7.03;;;2.53;;
69542;SDS011;56762;49.494;11.768;2023-05-09T04:24:26;4.45;;;2.38;;
69542;SDS011;56762;49.494;11.768;2023-05-09T04:26:55;6.82;;;2.55;;
69542;SDS011;56762;49.494;11.768;2023-05-09T04:29:23;5.43;;;2.40;;
69542;SDS011;56762;49.494;11.768;2023-05-09T04:31:51;5.53;;;2.50;;
69542;SDS011;56762;49.494;11.768;2023-05-09T04:34:19;4.30;;;2.20;;
69542;SDS011;56762;49.494;11.768;2023-05-09T04:36:52;4.03;;;2.15;;
69542;SDS011;56762;49.494;11.768;2023-05-09T04:39:20;3.58;;;2.20;;
69542;SDS011;56762;49.494;11.768;2023-05-09T04:41:49;5.00;;;2.30;;
69542;SDS011;56762;49.494;11.768;2023-05-09T04:44:18;5.60;;;2.80;;
69542;SDS011;56762;49.494;11.768;2023-05-09T04:46:47;5.93;;;3.20;;
69542;SDS011;56762;49.494;11.768;2023-05-09T04:49:16;3.88;;;2.38;;
69542;SDS011;56762;49.494;11.768;2023-05-09T04:51:44;4.40;;;2.20;;
69542;SDS011;56762;49.494;11.768;2023-05-09T04:54:14;4.47;;;2.42;;
69542;SDS011;56762;49.494;11.768;2023-05-09T04:56:42;4.00;;;2.10;;
69542;SDS011;56762;49.494;11.768;2023-05-09T04:59:10;4.18;;;2.33;;
69542;SDS011;56762;49.494;11.768;2023-05-09T05:01:39;4.75;;;2.85;;
69542;SDS011;56762;49.494;11.768;2023-05-09T05:04:07;4.93;;;2.45;;
69542;SDS011;56762;49.494;11.768;2023-05-09T05:06:35;4.10;;;2.30;;
69542;SDS011;56762;49.494;11.768;2023-05-09T05:09:03;3.60;;;2.13;;
69542;SDS011;56762;49.494;11.768;2023-05-09T05:11:33;4.97;;;2.55;;
69542;SDS011;56762;49.494;11.768;2023-05-09T05:14:01;4.88;;;2.40;;
69542;SDS011;56762;49.494;11.768;2023-05-09T05:16:29;3.80;;;2.30;;
69542;SDS011;56762;49.494;11.768;2023-05-09T05:18:57;4.50;;;2.20;;
69542;SDS011;56762;49.494;11.768;2023-05-09T05:21:25;4.33;;;2.40;;
69542;SDS011;56762;49.494;11.768;2023-05-09T05:23:53;4.95;;;1.98;;
69542;SDS011;56762;49.494;11.768;2023-05-09T05:26:21;3.95;;;1.98;;
69542;SDS011;56762;49.494;11.768;2023-05-09T05:28:52;4.13;;;2.28;;
69542;SDS011;56762;49.494;11.768;2023-05-09T05:31:22;4.68;;;2.30;;
69542;SDS011;56762;49.494;11.768;2023-05-09T05:33:50;3.40;;;1.73;;
69542;SDS011;56762;49.494;11.768;2023-05-09T05:36:18;4.38;;;2.42;;
69542;SDS011;56762;49.494;11.768;2023-05-09T05:38:46;4.80;;;2.60;;
69542;SDS011;56762;49.494;11.768;2023-05-09T05:41:15;3.55;;;1.98;;
69542;SDS011;56762;49.494;11.768;2023-05-09T05:43:43;5.32;;;2.67;;
69542;SDS011;56762;49.494;11.768;2023-05-09T05:46:12;5.00;;;2.27;;
69542;SDS011;56762;49.494;11.768;2023-05-09T05:48:40;3.95;;;2.25;;
69542;SDS011;56762;49.494;11.768;2023-05-09T05:51:09;4.50;;;2.00;;
69542;SDS011;56762;49.494;11.768;2023-05-09T05:53:37;5.75;;;2.38;;
69542;SDS011;56762;49.494;11.768;2023-05-09T05:56:05;4.25;;;2.40;;
69542;SDS011;56762;49.494;11.768;2023-05-09T05:58:33;4.17;;;2.40;;
69542;SDS011;56762;49.494;11.768;2023-05-09T06:01:01;5.10;;;2.20;;
69542;SDS011;56762;49.494;11.768;2023-05-09T06:03:31;5.70;;;2.22;;
69542;SDS011;56762;49.494;11.768;2023-05-09T06:05:59;5.78;;;2.40;;
69542;SDS011;56762;49.494;11.768;2023-05-09T06:08:28;3.58;;;2.00;;
69542;SDS011;56762;49.494;11.768;2023-05-09T06:10:57;3.83;;;2.20;;
69542;SDS011;56762;49.494;11.768;2023-05-09T06:13:25;6.78;;;2.20;;
69542;SDS011;56762;49.494;11.768;2023-05-09T06:15:54;5.65;;;2.33;;
69542;SDS011;56762;49.494;11.768;2023-05-09T06:18:34;4.07;;;2.30;;
69542;SDS011;56762;49.494;11.768;2023-05-09T06:21:05;3.53;;;2.15;;
69542;SDS011;56762;49.494;11.768;2023-05-09T06:23:34;5.43;;;2.43;;
69542;SDS011;56762;49.494;11.768;2023-05-09T06:26:09;5.10;;;2.53;;
69542;SDS011;56762;49.494;11.768;2023-05-09T06:28:39;4.15;;;2.30;;
69542;SDS011;56762;49.494;11.768;2023-05-09T06:31:08;7.68;;;2.30;;
69542;SDS011;56762;49.494;11.768;2023-05-09T06:33:37;5.35;;;2.38;;
69542;SDS011;56762;49.494;11.768;2023-05-09T06:36:05;6.90;;;2.77;;
69542;SDS011;56762;49.494;11.768;2023-05-09T06:38:34;4.90;;;2.45;;
69542;SDS011;56762;49.494;11.768;2023-05-09T06:41:02;4.68;;;2.33;;
69542;SDS011;56762;49.494;11.768;2023-05-09T06:43:30;4.22;;;2.25;;
69542;SDS011;56762;49.494;11.768;2023-05-09T06:45:58;3.55;;;2.17;;
69542;SDS011;56762;49.494;11.768;2023-05-09T06:48:26;4.67;;;2.20;;
69542;SDS011;56762;49.494;11.768;2023-05-09T06:50:56;6.18;;;2.92;;
69542;SDS011;56762;49.494;11.768;2023-05-09T06:53:23;7.07;;;3.03;;
69542;SDS011;56762;49.494;11.768;2023-05-09T06:55:51;4.90;;;2.42;;
69542;SDS011;56762;49.494;11.768;2023-05-09T06:58:19;7.78;;;3.55;;
69542;SDS011;56762;49.494;11.768;2023-05-09T07:00:48;6.00;;;3.13;;
69542;SDS011;56762;49.494;11.768;2023-05-09T07:03:16;4.85;;;2.70;;
69542;SDS011;56762;49.494;11.768;2023-05-09T07:05:44;5.55;;;2.70;;
69542;SDS011;56762;49.494;11.768;2023-05-09T07:08:13;5.10;;;2.95;;
69542;SDS011;56762;49.494;11.768;2023-05-09T07:10:41;5.50;;;3.15;;
69542;SDS011;56762;49.494;11.768;2023-05-09T07:13:10;5.97;;;2.70;;
69542;SDS011;56762;49.494;11.768;2023-05-09T07:15:38;5.50;;;2.92;;
69542;SDS011;56762;49.494;11.768;2023-05-09T07:18:08;5.95;;;2.70;;
69542;SDS011;56762;49.494;11.768;2023-05-09T07:20:36;6.28;;;2.60;;
69542;SDS011;56762;49.494;11.768;2023-05-09T07:23:04;7.28;;;3.10;;
69542;SDS011;56762;49.494;11.768;2023-05-09T07:25:34;5.97;;;3.03;;
69542;SDS011;56762;49.494;11.768;2023-05-09T07:28:02;5.85;;;3.45;;
69542;SDS011;56762;49.494;11.768;2023-05-09T07:30:30;6.95;;;2.72;;
69542;SDS011;56762;49.494;11.768;2023-05-09T07:32:58;5.30;;;2.65;;
69542;SDS011;56762;49.494;11.768;2023-05-09T07:35:27;5.15;;;3.58;;
69542;SDS011;56762;49.494;11.768;2023-05-09T07:37:55;6.63;;;3.67;;
69542;SDS011;56762;49.494;11.768;2023-05-09T07:40:24;4.70;;;2.60;;
69542;SDS011;56762;49.494;11.768;2023-05-09T07:42:53;4.97;;;2.70;;
69542;SDS011;56762;49.494;11.768;2023-05-09T07:45:22;5.00;;;3.30;;
69542;SDS011;56762;49.494;11.768;2023-05-09T07:47:51;4.47;;;2.67;;
69542;SDS011;56762;49.494;11.768;2023-05-09T07:50:20;4.87;;;2.63;;
69542;SDS011;56762;49.494;11.768;2023-05-09T07:53:07;4.88;;;2.92;;
69542;SDS011;56762;49.494;11.768;2023-05-09T07:55:39;4.70;;;2.72;;
69542;SDS011;56762;49.494;11.768;2023-05-09T07:58:19;3.47;;;1.98;;
69542;SDS011;56762;49.494;11.768;2023-05-09T08:00:50;2.78;;;1.67;;
69542;SDS011;56762;49.494;11.768;2023-05-09T08:03:19;3.90;;;1.33;;
69542;SDS011;56762;49.494;11.768;2023-05-09T08:05:47;3.38;;;1.38;;
69542;SDS011;56762;49.494;11.768;2023-05-09T08:08:19;3.90;;;1.73;;
69542;SDS011;56762;49.494;11.768;2023-05-09T08:10:50;2.63;;;1.33;;
69542;SDS011;56762;49.494;11.768;2023-05-09T08:13:31;3.88;;;1.30;;
69542;SDS011;56762;49.494;11.768;2023-05-09T08:16:14;3.17;;;1.40;;
69542;SDS011;56762;49.494;11.768;2023-05-09T08:18:45;3.35;;;1.27;;
69542;SDS011;56762;49.494;11.768;2023-05-09T08:21:15;3.75;;;1.23;;
69542;SDS011;56762;49.494;11.768;2023-05-09T08:23:47;4.95;;;1.40;;
69542;SDS011;56762;49.494;11.768;2023-05-09T08:26:15;4.75;;;1.73;;
69542;SDS011;56762;49.494;11.768;2023-05-09T08:28:47;3.40;;;1.60;;
69542;SDS011;56762;49.494;11.768;2023-05-09T08:31:21;2.67;;;1.40;;
69542;SDS011;56762;49.494;11.768;2023-05-09T08:33:52;3.17;;;1.40;;
69542;SDS011;56762;49.494;11.768;2023-05-09T08:36:20;3.13;;;1.42;;
69542;SDS011;56762;49.494;11.768;2023-05-09T08:38:48;3.22;;;1.60;;
69542;SDS011;56762;49.494;11.768;2023-05-09T08:41:16;3.07;;;1.60;;
69542;SDS011;56762;49.494;11.768;2023-05-09T08:43:46;2.90;;;1.38;;
69542;SDS011;56762;49.494;11.768;2023-05-09T08:46:16;3.65;;;1.65;;
69542;SDS011;56762;49.494;11.768;2023-05-09T08:48:49;3.13;;;1.60;;
69542;SDS011;56762;49.494;11.768;2023-05-09T08:51:17;5.10;;;1.98;;
69542;SDS011;56762;49.494;11.768;2023-05-09T08:53:46;3.73;;;1.67;;
69542;SDS011;56762;49.494;11.768;2023-05-09T08:56:15;3.40;;;1.45;;
69542;SDS011;56762;49.494;11.768;2023-05-09T08:58:43;2.88;;;1.58;;
69542;SDS011;56762;49.494;11.768;2023-05-09T09:01:13;4.25;;;1.50;;
69542;SDS011;56762;49.494;11.768;2023-05-09T09:03:42;4.80;;;2.03;;
69542;SDS011;56762;49.494;11.768;2023-05-09T09:06:13;3.53;;;1.50;;
69542;SDS011;56762;49.494;11.768;2023-05-09T09:08:41;2.90;;;1.63;;
69542;SDS011;56762;49.494;11.768;2023-05-09T09:11:12;2.50;;;1.50;;
69542;SDS011;56762;49.494;11.768;2023-05-09T09:13:41;3.42;;;1.70;;
69542;SDS011;56762;49.494;11.768;2023-05-09T09:16:13;3.72;;;1.48;;
69542;SDS011;56762;49.494;11.768;2023-05-09T09:18:47;3.07;;;1.53;;
69542;SDS011;56762;49.494;11.768;2023-05-09T09:21:19;4.47;;;1.58;;
69542;SDS011;56762;49.494;11.768;2023-05-09T09:23:48;3.28;;;1.50;;
69542;SDS011;56762;49.494;11.768;2023-05-09T09:26:16;2.58;;;1.40;;
69542;SDS011;56762;49.494;11.768;2023-05-09T09:28:45;3.90;;;1.35;;
69542;SDS011;56762;49.494;11.768;2023-05-09T09:31:21;3.30;;;1.20;;
69542;SDS011;56762;49.494;11.768;2023-05-09T09:33:50;5.22;;;1.35;;
69542;SDS011;56762;49.494;11.768;2023-05-09T09:36:25;2.58;;;1.23;;
69542;SDS011;56762;49.494;11.768;2023-05-09T09:38:55;2.40;;;0.90;;
69542;SDS011;56762;49.494;11.768;2023-05-09T09:41:28;3.15;;;1.20;;
69542;SDS011;56762;49.494;11.768;2023-05-09T09:43:57;3.57;;;1.10;;
69542;SDS011;56762;49.494;11.768;2023-05-09T09:46:27;3.50;;;1.58;;
69542;SDS011;56762;49.494;11.768;2023-05-09T09:48:59;3.05;;;1.40;;
69542;SDS011;56762;49.494;11.768;2023-05-09T09:51:27;3.05;;;1.10;;
69542;SDS011;56762;49.494;11.768;2023-05-09T09:53:56;3.28;;;1.20;;
69542;SDS011;56762;49.494;11.768;2023-05-09T09:56:36;2.87;;;1.00;;
69542;SDS011;56762;49.494;11.768;2023-05-09T09:59:07;2.28;;;1.13;;
69542;SDS011;56762;49.494;11.768;2023-05-09T10:01:41;3.10;;;1.08;;
69542;SDS011;56762;49.494;11.768;2023-05-09T10:04:21;2.55;;;1.10;;
69542;SDS011;56762;49.494;11.768;2023-05-09T10:06:52;2.47;;;1.05;;
69542;SDS011;56762;49.494;11.768;2023-05-09T10:09:21;3.40;;;0.97;;
69542;SDS011;56762;49.494;11.768;2023-05-09T10:11:50;2.90;;;1.20;;
69542;SDS011;56762;49.494;11.768;2023-05-09T10:14:20;6.45;;;1.10;;
69542;SDS011;56762;49.494;11.768;2023-05-09T10:16:51;2.33;;;1.30;;
69542;SDS011;56762;49.494;11.768;2023-05-09T10:19:22;2.45;;;1.10;;
69542;SDS011;56762;49.494;11.768;2023-05-09T10:21:56;2.43;;;1.20;;
69542;SDS011;56762;49.494;11.768;2023-05-09T10:24:26;1.92;;;1.10;;
69542;SDS011;56762;49.494;11.768;2023-05-09T10:26:58;4.85;;;1.60;;
69542;SDS011;56762;49.494;11.768;2023-05-09T10:29:36;4.57;;;1.67;;
69542;SDS011;56762;49.494;11.768;2023-05-09T10:32:10;3.03;;;1.42;;
69542;SDS011;56762;49.494;11.768;2023-05-09T10:34:46;2.97;;;1.57;;
69542;SDS011;56762;49.494;11.768;2023-05-09T10:37:19;5.25;;;1.90;;
69542;SDS011;56762;49.494;11.768;2023-05-09T10:39:50;3.92;;;1.73;;
69542;SDS011;56762;49.494;11.768;2023-05-09T10:42:20;2.78;;;1.30;;
69542;SDS011;56762;49.494;11.768;2023-05-09T10:44:50;4.22;;;1.67;;
69542;SDS011;56762;49.494;11.768;2023-05-09T10:47:21;6.83;;;3.17;;
69542;SDS011;56762;49.494;11.768;2023-05-09T10:49:50;5.07;;;1.63;;
69542;SDS011;56762;49.494;11.768;2023-05-09T10:52:19;3.35;;;1.55;;
69542;SDS011;56762;49.494;11.768;2023-05-09T10:54:56;3.42;;;1.50;;
69542;SDS011;56762;49.494;11.768;2023-05-09T10:57:27;4.45;;;2.58;;
69542;SDS011;56762;49.494;11.768;2023-05-09T10:59:59;3.13;;;1.40;;
69542;SDS011;56762;49.494;11.768;2023-05-09T11:02:31;2.70;;;1.45;;
69542;SDS011;56762;49.494;11.768;2023-05-09T11:05:12;5.18;;;1.63;;
69542;SDS011;56762;49.494;11.768;2023-05-09T11:07:41;3.28;;;1.27;;
69542;SDS011;56762;49.494;11.768;2023-05-09T11:10:13;2.35;;;1.20;;
69542;SDS011;56762;49.494;11.768;2023-05-09T11:12:52;2.73;;;1.43;;
69542;SDS011;56762;49.494;11.768;2023-05-09T11:15:23;2.53;;;1.30;;
69542;SDS011;56762;49.494;11.768;2023-05-09T11:18:04;4.75;;;1.30;;
69542;SDS011;56762;49.494;11.768;2023-05-09T11:20:34;2.50;;;1.48;;
69542;SDS011;56762;49.494;11.768;2023-05-09T11:23:02;1.98;;;1.20;;
69542;SDS011;56762;49.494;11.768;2023-05-09T11:25:32;5.70;;;1.30;;
69542;SDS011;56762;49.494;11.768;2023-05-09T11:28:00;2.50;;;1.33;;
69542;SDS011;56762;49.494;11.768;2023-05-09T11:30:35;2.70;;;1.27;;
69542;SDS011;56762;49.494;11.768;2023-05-09T11:33:21;2.42;;;1.10;;
69542;SDS011;56762;49.494;11.768;2023-05-09T11:38:45;1.70;;;0.90;;
69542;SDS011;56762;49.494;11.768;2023-05-09T11:41:14;2.50;;;1.40;;
69542;SDS011;56762;49.494;11.768;2023-05-09T11:43:42;2.92;;;1.25;;
69542;SDS011;56762;49.494;11.768;2023-05-09T11:46:12;2.15;;;0.95;;
69542;SDS011;56762;49.494;11.768;2023-05-09T11:48:41;4.00;;;0.90;;
69542;SDS011;56762;49.494;11.768;2023-05-09T11:51:14;3.27;;;1.30;;
69542;SDS011;56762;49.494;11.768;2023-05-09T11:53:43;2.20;;;1.20;;
69542;SDS011;56762;49.494;11.768;2023-05-09T11:56:12;3.47;;;1.33;;
69542;SDS011;56762;49.494;11.768;2023-05-09T11:58:41;3.40;;;1.60;;
69542;SDS011;56762;49.494;11.768;2023-05-09T12:01:09;2.40;;;1.00;;
69542;SDS011;56762;49.494;11.768;2023-05-09T12:03:42;2.30;;;1.13;;
69542;SDS011;56762;49.494;11.768;2023-05-09T12:06:13;2.45;;;1.00;;
69542;SDS011;56762;49.494;11.768;2023-05-09T12:08:42;2.83;;;1.10;;
69542;SDS011;56762;49.494;11.768;2023-05-09T12:11:11;2.25;;;0.90;;
69542;SDS011;56762;49.494;11.768;2023-05-09T12:13:45;2.25;;;1.10;;
69542;SDS011;56762;49.494;11.768;2023-05-09T12:16:14;2.80;;;0.80;;
69542;SDS011;56762;49.494;11.768;2023-05-09T12:18:44;2.35;;;0.80;;
69542;SDS011;56762;49.494;11.768;2023-05-09T12:21:13;2.33;;;0.90;;
69542;SDS011;56762;49.494;11.768;2023-05-09T12:23:42;3.42;;;1.08;;
69542;SDS011;56762;49.494;11.768;2023-05-09T12:26:10;2.38;;;0.80;;
69542;SDS011;56762;49.494;11.768;2023-05-09T12:28:38;2.57;;;1.00;;
69542;SDS011;56762;49.494;11.768;2023-05-09T12:31:07;2.35;;;1.02;;
69542;SDS011;56762;49.494;11.768;2023-05-09T12:33:36;1.75;;;0.85;;
69542;SDS011;56762;49.494;11.768;2023-05-09T12:36:08;2.15;;;1.13;;
69542;SDS011;56762;49.494;11.768;2023-05-09T12:38:38;3.17;;;1.50;;
69542;SDS011;56762;49.494;11.768;2023-05-09T12:41:06;2.97;;;0.73;;
69542;SDS011;56762;49.494;11.768;2023-05-09T12:43:55;2.88;;;1.30;;
69542;SDS011;56762;49.494;11.768;2023-05-09T12:46:23;4.10;;;1.13;;
69542;SDS011;56762;49.494;11.768;2023-05-09T12:48:51;1.70;;;0.85;;
69542;SDS011;56762;49.494;11.768;2023-05-09T12:51:20;2.67;;;0.90;;
69542;SDS011;56762;49.494;11.768;2023-05-09T12:53:49;2.50;;;1.00;;
69542;SDS011;56762;49.494;11.768;2023-05-09T12:56:18;3.28;;;0.95;;
69542;SDS011;56762;49.494;11.768;2023-05-09T12:58:48;15.77;;;1.70;;
69542;SDS011;56762;49.494;11.768;2023-05-09T13:01:17;3.10;;;0.90;;
69542;SDS011;56762;49.494;11.768;2023-05-09T13:03:49;3.17;;;1.00;;
69542;SDS011;56762;49.494;11.768;2023-05-09T13:06:18;3.50;;;1.40;;
69542;SDS011;56762;49.494;11.768;2023-05-09T13:08:56;3.05;;;1.40;;
69542;SDS011;56762;49.494;11.768;2023-05-09T13:11:27;3.85;;;1.77;;
69542;SDS011;56762;49.494;11.768;2023-05-09T13:13:56;3.03;;;1.00;;
69542;SDS011;56762;49.494;11.768;2023-05-09T13:16:24;3.50;;;0.93;;
69542;SDS011;56762;49.494;11.768;2023-05-09T13:18:53;3.03;;;0.90;;
69542;SDS011;56762;49.494;11.768;2023-05-09T13:21:23;4.35;;;1.00;;
69542;SDS011;56762;49.494;11.768;2023-05-09T13:23:51;2.10;;;1.05;;
69542;SDS011;56762;49.494;11.768;2023-05-09T13:26:22;2.50;;;0.90;;
69542;SDS011;56762;49.494;11.768;2023-05-09T13:28:51;2.70;;;0.98;;
69542;SDS011;56762;49.494;11.768;2023-05-09T13:31:20;3.23;;;1.17;;
69542;SDS011;56762;49.494;11.768;2023-05-09T13:33:48;4.07;;;2.00;;
69542;SDS011;56762;49.494;11.768;2023-05-09T13:36:17;2.42;;;1.10;;
69542;SDS011;56762;49.494;11.768;2023-05-09T13:38:46;2.45;;;1.17;;
69542;SDS011;56762;49.494;11.768;2023-05-09T13:41:14;3.38;;;1.40;;
69542;SDS011;56762;49.494;11.768;2023-05-09T13:43:47;4.23;;;1.10;;
69542;SDS011;56762;49.494;11.768;2023-05-09T13:46:15;5.57;;;1.65;;
69542;SDS011;56762;49.494;11.768;2023-05-09T13:48:44;3.15;;;1.55;;
69542;SDS011;56762;49.494;11.768;2023-05-09T13:51:13;3.15;;;1.20;;
69542;SDS011;56762;49.494;11.768;2023-05-09T13:53:41;3.00;;;1.30;;
69542;SDS011;56762;49.494;11.768;2023-05-09T13:56:10;2.27;;;1.03;;
69542;SDS011;56762;49.494;11.768;2023-05-09T13:58:38;2.47;;;1.13;;
69542;SDS011;56762;49.494;11.768;2023-05-09T14:01:07;2.70;;;1.10;;
69542;SDS011;56762;49.494;11.768;2023-05-09T14:03:34;2.67;;;1.20;;
69542;SDS011;56762;49.494;11.768;2023-05-09T14:06:03;2.10;;;0.98;;
69542;SDS011;56762;49.494;11.768;2023-05-09T14:08:31;2.20;;;1.00;;
69542;SDS011;56762;49.494;11.768;2023-05-09T14:10:58;2.47;;;0.90;;
69542;SDS011;56762;49.494;11.768;2023-05-09T14:13:27;3.05;;;1.20;;
69542;SDS011;56762;49.494;11.768;2023-05-09T14:15:57;1.90;;;0.95;;
69542;SDS011;56762;49.494;11.768;2023-05-09T14:18:26;4.57;;;1.30;;
69542;SDS011;56762;49.494;11.768;2023-05-09T14:20:55;3.17;;;1.33;;
69542;SDS011;56762;49.494;11.768;2023-05-09T14:23:23;4.88;;;1.75;;
69542;SDS011;56762;49.494;11.768;2023-05-09T14:25:51;4.03;;;1.17;;
69542;SDS011;56762;49.494;11.768;2023-05-09T14:28:19;1.77;;;0.80;;
69542;SDS011;56762;49.494;11.768;2023-05-09T14:30:47;2.92;;;1.10;;
69542;SDS011;56762;49.494;11.768;2023-05-09T14:33:15;2.33;;;0.90;;
69542;SDS011;56762;49.494;11.768;2023-05-09T14:35:46;3.97;;;1.80;;
69542;SDS011;56762;49.494;11.768;2023-05-09T14:38:14;3.42;;;1.27;;
69542;SDS011;56762;49.494;11.768;2023-05-09T14:40:42;2.72;;;1.10;;
69542;SDS011;56762;49.494;11.768;2023-05-09T14:43:10;2.22;;;0.80;;
69542;SDS011;56762;49.494;11.768;2023-05-09T14:45:38;2.10;;;0.93;;
69542;SDS011;56762;49.494;11.768;2023-05-09T14:48:06;2.95;;;1.20;;
69542;SDS011;56762;49.494;11.768;2023-05-09T14:50:34;3.40;;;0.90;;
69542;SDS011;56762;49.494;11.768;2023-05-09T14:53:03;2.60;;;0.90;;